Sheyenne, North Dakota
Current Conditions -  °F | °C
As of 12:35 PM on Thursday 30 Oct 2014 (Local Time) from KDVL Reporting Station
Overcast Overcast  
Wind Chill: -6°   Ceiling: 1900
Heat Index:   Visibility: 10mi
Dew Point: -7°   Wind: 18mph
Humidity: 60%   Direction: 10°N
Pressure: 30.36"   Gusts: NA
Location:  47.83°N, 99.12°W
Report Text: KDVL 301735Z AUTO 01016KT 10SM OVC019 00/M07 A3036 RMK AO1
Loading
Personal Weather Stations






























Interactive Weather Map
Tropical Storm Tracking
New forecast layout! Learn more

10-Day Weather Forecast

Advertisements
Track Severe Weather on mobile